sensor_id;sensor_type;location;lat;lon;timestamp;P1;durP1;ratioP1;P2;durP2;ratioP2
60006;SDS011;45863;50.336;3.536;2023-03-24T00:00:03;7.07;;;3.00;;
60006;SDS011;45863;50.336;3.536;2023-03-24T00:02:30;8.90;;;3.05;;
60006;SDS011;45863;50.336;3.536;2023-03-24T00:04:55;6.75;;;2.67;;
60006;SDS011;45863;50.336;3.536;2023-03-24T00:07:22;6.05;;;2.70;;
60006;SDS011;45863;50.336;3.536;2023-03-24T00:09:48;4.63;;;1.92;;
60006;SDS011;45863;50.336;3.536;2023-03-24T00:12:13;7.73;;;3.00;;
60006;SDS011;45863;50.336;3.536;2023-03-24T00:14:42;6.72;;;2.72;;
60006;SDS011;45863;50.336;3.536;2023-03-24T00:17:07;4.97;;;2.45;;
60006;SDS011;45863;50.336;3.536;2023-03-24T00:19:33;5.07;;;2.45;;
60006;SDS011;45863;50.336;3.536;2023-03-24T00:22:02;6.25;;;3.15;;
60006;SDS011;45863;50.336;3.536;2023-03-24T00:24:27;6.32;;;2.67;;
60006;SDS011;45863;50.336;3.536;2023-03-24T00:26:52;8.25;;;2.65;;
60006;SDS011;45863;50.336;3.536;2023-03-24T00:29:21;4.28;;;1.80;;
60006;SDS011;45863;50.336;3.536;2023-03-24T00:31:47;5.80;;;2.58;;
60006;SDS011;45863;50.336;3.536;2023-03-24T00:34:12;5.78;;;2.40;;
60006;SDS011;45863;50.336;3.536;2023-03-24T00:36:37;5.60;;;2.08;;
60006;SDS011;45863;50.336;3.536;2023-03-24T00:39:03;4.90;;;2.65;;
60006;SDS011;45863;50.336;3.536;2023-03-24T00:41:28;5.07;;;2.20;;
60006;SDS011;45863;50.336;3.536;2023-03-24T00:43:55;6.00;;;2.80;;
60006;SDS011;45863;50.336;3.536;2023-03-24T00:46:21;6.45;;;2.00;;
60006;SDS011;45863;50.336;3.536;2023-03-24T00:48:56;4.63;;;2.25;;
60006;SDS011;45863;50.336;3.536;2023-03-24T00:51:26;4.47;;;2.10;;
60006;SDS011;45863;50.336;3.536;2023-03-24T00:53:51;5.30;;;2.47;;
60006;SDS011;45863;50.336;3.536;2023-03-24T00:56:21;4.70;;;2.20;;
60006;SDS011;45863;50.336;3.536;2023-03-24T00:58:47;3.78;;;2.03;;
60006;SDS011;45863;50.336;3.536;2023-03-24T01:01:12;5.78;;;2.42;;
60006;SDS011;45863;50.336;3.536;2023-03-24T01:03:37;7.85;;;2.67;;
60006;SDS011;45863;50.336;3.536;2023-03-24T01:06:12;7.40;;;2.60;;
60006;SDS011;45863;50.336;3.536;2023-03-24T01:08:37;6.80;;;2.47;;
60006;SDS011;45863;50.336;3.536;2023-03-24T01:11:02;4.68;;;2.65;;
60006;SDS011;45863;50.336;3.536;2023-03-24T01:13:29;5.82;;;2.55;;
60006;SDS011;45863;50.336;3.536;2023-03-24T01:15:54;5.65;;;2.72;;
60006;SDS011;45863;50.336;3.536;2023-03-24T01:18:20;7.30;;;3.35;;
60006;SDS011;45863;50.336;3.536;2023-03-24T01:20:48;9.75;;;3.50;;
60006;SDS011;45863;50.336;3.536;2023-03-24T01:23:14;7.07;;;2.47;;
60006;SDS011;45863;50.336;3.536;2023-03-24T01:25:40;7.25;;;3.60;;
60006;SDS011;45863;50.336;3.536;2023-03-24T01:28:09;8.32;;;3.53;;
60006;SDS011;45863;50.336;3.536;2023-03-24T01:30:34;6.53;;;2.50;;
60006;SDS011;45863;50.336;3.536;2023-03-24T01:32:59;9.18;;;2.47;;
60006;SDS011;45863;50.336;3.536;2023-03-24T01:35:25;4.07;;;1.47;;
60006;SDS011;45863;50.336;3.536;2023-03-24T01:37:51;4.72;;;1.33;;
60006;SDS011;45863;50.336;3.536;2023-03-24T01:40:18;4.55;;;1.77;;
60006;SDS011;45863;50.336;3.536;2023-03-24T01:42:43;6.47;;;1.60;;
60006;SDS011;45863;50.336;3.536;2023-03-24T01:47:52;3.47;;;1.30;;
60006;SDS011;45863;50.336;3.536;2023-03-24T01:50:17;4.00;;;1.38;;
60006;SDS011;45863;50.336;3.536;2023-03-24T01:52:43;6.82;;;1.60;;
60006;SDS011;45863;50.336;3.536;2023-03-24T01:55:10;5.55;;;1.70;;
60006;SDS011;45863;50.336;3.536;2023-03-24T01:57:41;4.35;;;1.20;;
60006;SDS011;45863;50.336;3.536;2023-03-24T02:00:08;5.72;;;1.27;;
60006;SDS011;45863;50.336;3.536;2023-03-24T02:02:34;4.97;;;1.48;;
60006;SDS011;45863;50.336;3.536;2023-03-24T02:05:02;6.95;;;1.75;;
60006;SDS011;45863;50.336;3.536;2023-03-24T02:07:32;9.98;;;1.88;;
60006;SDS011;45863;50.336;3.536;2023-03-24T02:09:57;6.30;;;1.50;;
60006;SDS011;45863;50.336;3.536;2023-03-24T02:12:23;5.28;;;1.50;;
60006;SDS011;45863;50.336;3.536;2023-03-24T02:14:48;7.07;;;1.55;;
60006;SDS011;45863;50.336;3.536;2023-03-24T02:17:21;9.93;;;1.88;;
60006;SDS011;45863;50.336;3.536;2023-03-24T02:20:03;6.13;;;1.42;;
60006;SDS011;45863;50.336;3.536;2023-03-24T02:23:26;7.63;;;1.40;;
60006;SDS011;45863;50.336;3.536;2023-03-24T02:25:27;6.25;;;1.75;;
60006;SDS011;45863;50.336;3.536;2023-03-24T02:30:31;8.95;;;2.15;;
60006;SDS011;45863;50.336;3.536;2023-03-24T02:46:10;9.27;;;1.48;;
60006;SDS011;45863;50.336;3.536;2023-03-24T02:56:15;6.53;;;1.50;;
60006;SDS011;45863;50.336;3.536;2023-03-24T02:58:48;9.43;;;1.90;;
60006;SDS011;45863;50.336;3.536;2023-03-24T03:03:48;6.95;;;1.30;;
60006;SDS011;45863;50.336;3.536;2023-03-24T03:08:39;3.95;;;1.45;;
60006;SDS011;45863;50.336;3.536;2023-03-24T03:11:05;12.05;;;2.60;;
60006;SDS011;45863;50.336;3.536;2023-03-24T03:13:38;5.80;;;1.60;;
60006;SDS011;45863;50.336;3.536;2023-03-24T03:16:14;10.32;;;2.03;;
60006;SDS011;45863;50.336;3.536;2023-03-24T03:18:42;9.27;;;2.00;;
60006;SDS011;45863;50.336;3.536;2023-03-24T03:21:10;5.22;;;1.67;;
60006;SDS011;45863;50.336;3.536;2023-03-24T03:23:37;9.85;;;1.98;;
60006;SDS011;45863;50.336;3.536;2023-03-24T03:26:04;8.88;;;2.00;;
60006;SDS011;45863;50.336;3.536;2023-03-24T03:28:34;7.28;;;1.50;;
60006;SDS011;45863;50.336;3.536;2023-03-24T03:31:01;8.60;;;2.03;;
60006;SDS011;45863;50.336;3.536;2023-03-24T03:33:30;7.22;;;1.40;;
60006;SDS011;45863;50.336;3.536;2023-03-24T03:38:39;7.67;;;2.50;;
60006;SDS011;45863;50.336;3.536;2023-03-24T03:41:06;9.27;;;1.70;;
60006;SDS011;45863;50.336;3.536;2023-03-24T03:43:31;6.60;;;1.70;;
60006;SDS011;45863;50.336;3.536;2023-03-24T03:45:57;5.68;;;1.42;;
60006;SDS011;45863;50.336;3.536;2023-03-24T03:48:23;10.95;;;2.08;;
60006;SDS011;45863;50.336;3.536;2023-03-24T03:50:50;7.43;;;1.75;;
60006;SDS011;45863;50.336;3.536;2023-03-24T03:53:16;10.82;;;1.60;;
60006;SDS011;45863;50.336;3.536;2023-03-24T03:55:43;11.98;;;1.80;;
60006;SDS011;45863;50.336;3.536;2023-03-24T03:58:09;8.30;;;1.77;;
60006;SDS011;45863;50.336;3.536;2023-03-24T04:00:34;9.80;;;1.70;;
60006;SDS011;45863;50.336;3.536;2023-03-24T04:03:08;6.80;;;1.70;;
60006;SDS011;45863;50.336;3.536;2023-03-24T04:05:43;10.52;;;1.58;;
60006;SDS011;45863;50.336;3.536;2023-03-24T04:18:18;6.53;;;1.50;;
60006;SDS011;45863;50.336;3.536;2023-03-24T04:20:47;11.88;;;2.45;;
60006;SDS011;45863;50.336;3.536;2023-03-24T04:23:19;8.98;;;2.28;;
60006;SDS011;45863;50.336;3.536;2023-03-24T04:25:53;10.30;;;2.03;;
60006;SDS011;45863;50.336;3.536;2023-03-24T04:31:00;6.80;;;1.95;;
60006;SDS011;45863;50.336;3.536;2023-03-24T04:36:00;6.07;;;1.75;;
60006;SDS011;45863;50.336;3.536;2023-03-24T04:38:30;5.10;;;1.73;;
60006;SDS011;45863;50.336;3.536;2023-03-24T04:40:59;7.00;;;1.60;;
60006;SDS011;45863;50.336;3.536;2023-03-24T04:43:26;10.55;;;2.00;;
60006;SDS011;45863;50.336;3.536;2023-03-24T04:45:52;7.85;;;1.52;;
60006;SDS011;45863;50.336;3.536;2023-03-24T04:48:21;7.40;;;1.80;;
60006;SDS011;45863;50.336;3.536;2023-03-24T04:50:57;5.20;;;1.73;;
60006;SDS011;45863;50.336;3.536;2023-03-24T04:53:24;12.80;;;2.88;;
60006;SDS011;45863;50.336;3.536;2023-03-24T04:55:52;8.07;;;1.98;;
60006;SDS011;45863;50.336;3.536;2023-03-24T04:58:18;9.40;;;2.28;;
60006;SDS011;45863;50.336;3.536;2023-03-24T05:00:44;13.23;;;2.45;;
60006;SDS011;45863;50.336;3.536;2023-03-24T05:03:10;8.65;;;2.45;;
60006;SDS011;45863;50.336;3.536;2023-03-24T05:05:38;10.77;;;2.80;;
60006;SDS011;45863;50.336;3.536;2023-03-24T05:08:03;8.90;;;1.95;;
60006;SDS011;45863;50.336;3.536;2023-03-24T05:10:29;12.82;;;2.80;;
60006;SDS011;45863;50.336;3.536;2023-03-24T05:12:54;12.03;;;2.90;;
60006;SDS011;45863;50.336;3.536;2023-03-24T05:15:19;9.48;;;2.50;;
60006;SDS011;45863;50.336;3.536;2023-03-24T05:17:44;16.45;;;3.97;;
60006;SDS011;45863;50.336;3.536;2023-03-24T05:20:10;17.83;;;3.08;;
60006;SDS011;45863;50.336;3.536;2023-03-24T05:22:38;11.77;;;3.38;;
60006;SDS011;45863;50.336;3.536;2023-03-24T05:25:04;12.57;;;3.70;;
60006;SDS011;45863;50.336;3.536;2023-03-24T05:27:29;13.05;;;3.55;;
60006;SDS011;45863;50.336;3.536;2023-03-24T05:29:55;11.13;;;2.80;;
60006;SDS011;45863;50.336;3.536;2023-03-24T05:32:20;12.57;;;3.55;;
60006;SDS011;45863;50.336;3.536;2023-03-24T05:34:45;10.48;;;3.28;;
60006;SDS011;45863;50.336;3.536;2023-03-24T05:37:10;11.40;;;3.83;;
60006;SDS011;45863;50.336;3.536;2023-03-24T05:39:37;13.73;;;3.47;;
60006;SDS011;45863;50.336;3.536;2023-03-24T05:42:02;13.38;;;3.25;;
60006;SDS011;45863;50.336;3.536;2023-03-24T05:44:27;14.68;;;4.25;;
60006;SDS011;45863;50.336;3.536;2023-03-24T05:46:52;12.73;;;4.10;;
60006;SDS011;45863;50.336;3.536;2023-03-24T05:49:17;15.38;;;4.82;;
60006;SDS011;45863;50.336;3.536;2023-03-24T05:51:43;20.40;;;4.35;;
60006;SDS011;45863;50.336;3.536;2023-03-24T05:54:08;13.40;;;4.00;;
60006;SDS011;45863;50.336;3.536;2023-03-24T05:56:33;13.50;;;4.25;;
60006;SDS011;45863;50.336;3.536;2023-03-24T05:58:59;14.43;;;4.43;;
60006;SDS011;45863;50.336;3.536;2023-03-24T06:01:24;13.85;;;4.43;;
60006;SDS011;45863;50.336;3.536;2023-03-24T06:03:50;12.75;;;3.78;;
60006;SDS011;45863;50.336;3.536;2023-03-24T06:06:15;17.65;;;4.30;;
60006;SDS011;45863;50.336;3.536;2023-03-24T06:08:41;15.20;;;3.45;;
60006;SDS011;45863;50.336;3.536;2023-03-24T06:11:09;10.32;;;3.42;;
60006;SDS011;45863;50.336;3.536;2023-03-24T06:13:34;13.57;;;3.88;;
60006;SDS011;45863;50.336;3.536;2023-03-24T06:16:00;10.30;;;3.38;;
60006;SDS011;45863;50.336;3.536;2023-03-24T06:18:25;11.80;;;3.00;;
60006;SDS011;45863;50.336;3.536;2023-03-24T06:20:51;10.75;;;3.25;;
60006;SDS011;45863;50.336;3.536;2023-03-24T06:23:20;11.60;;;2.47;;
60006;SDS011;45863;50.336;3.536;2023-03-24T06:25:47;11.63;;;2.78;;
60006;SDS011;45863;50.336;3.536;2023-03-24T06:28:14;11.73;;;2.75;;
60006;SDS011;45863;50.336;3.536;2023-03-24T06:30:42;16.83;;;3.33;;
60006;SDS011;45863;50.336;3.536;2023-03-24T06:33:07;11.60;;;2.58;;
60006;SDS011;45863;50.336;3.536;2023-03-24T06:35:33;12.65;;;2.53;;
60006;SDS011;45863;50.336;3.536;2023-03-24T06:37:59;14.23;;;2.75;;
60006;SDS011;45863;50.336;3.536;2023-03-24T06:40:25;14.60;;;2.70;;
60006;SDS011;45863;50.336;3.536;2023-03-24T06:42:50;10.20;;;2.28;;
60006;SDS011;45863;50.336;3.536;2023-03-24T06:45:15;11.20;;;2.50;;
60006;SDS011;45863;50.336;3.536;2023-03-24T06:47:41;10.35;;;2.25;;
60006;SDS011;45863;50.336;3.536;2023-03-24T06:50:06;12.37;;;2.70;;
60006;SDS011;45863;50.336;3.536;2023-03-24T06:52:32;9.20;;;2.47;;
60006;SDS011;45863;50.336;3.536;2023-03-24T06:54:57;9.10;;;2.30;;
60006;SDS011;45863;50.336;3.536;2023-03-24T06:57:22;13.63;;;2.28;;
60006;SDS011;45863;50.336;3.536;2023-03-24T06:59:47;14.63;;;2.22;;
60006;SDS011;45863;50.336;3.536;2023-03-24T07:02:13;6.67;;;2.10;;
60006;SDS011;45863;50.336;3.536;2023-03-24T07:04:38;9.45;;;2.55;;
60006;SDS011;45863;50.336;3.536;2023-03-24T07:07:03;8.30;;;2.03;;
60006;SDS011;45863;50.336;3.536;2023-03-24T07:09:29;11.95;;;2.58;;
60006;SDS011;45863;50.336;3.536;2023-03-24T07:11:54;10.35;;;2.25;;
60006;SDS011;45863;50.336;3.536;2023-03-24T07:14:19;9.90;;;1.98;;
60006;SDS011;45863;50.336;3.536;2023-03-24T07:16:46;9.05;;;2.10;;
60006;SDS011;45863;50.336;3.536;2023-03-24T07:19:11;10.00;;;2.35;;
60006;SDS011;45863;50.336;3.536;2023-03-24T07:21:36;8.85;;;2.20;;
60006;SDS011;45863;50.336;3.536;2023-03-24T07:24:01;8.75;;;2.28;;
60006;SDS011;45863;50.336;3.536;2023-03-24T07:26:27;9.38;;;2.25;;
60006;SDS011;45863;50.336;3.536;2023-03-24T07:28:52;9.20;;;2.30;;
60006;SDS011;45863;50.336;3.536;2023-03-24T07:31:17;9.50;;;2.10;;
60006;SDS011;45863;50.336;3.536;2023-03-24T07:33:42;10.40;;;2.10;;
60006;SDS011;45863;50.336;3.536;2023-03-24T07:36:08;7.55;;;1.80;;
60006;SDS011;45863;50.336;3.536;2023-03-24T07:38:33;8.82;;;1.90;;
60006;SDS011;45863;50.336;3.536;2023-03-24T07:40:58;10.02;;;2.33;;
60006;SDS011;45863;50.336;3.536;2023-03-24T07:43:24;9.00;;;2.20;;
60006;SDS011;45863;50.336;3.536;2023-03-24T07:45:50;9.57;;;2.30;;
60006;SDS011;45863;50.336;3.536;2023-03-24T07:48:15;8.75;;;1.80;;
60006;SDS011;45863;50.336;3.536;2023-03-24T07:50:40;7.35;;;1.45;;
60006;SDS011;45863;50.336;3.536;2023-03-24T07:53:06;5.50;;;1.92;;
60006;SDS011;45863;50.336;3.536;2023-03-24T07:55:34;12.18;;;2.80;;
60006;SDS011;45863;50.336;3.536;2023-03-24T07:57:59;9.60;;;2.20;;
60006;SDS011;45863;50.336;3.536;2023-03-24T08:00:25;7.97;;;2.25;;
60006;SDS011;45863;50.336;3.536;2023-03-24T08:02:50;8.27;;;2.33;;
60006;SDS011;45863;50.336;3.536;2023-03-24T08:05:16;13.23;;;2.20;;
60006;SDS011;45863;50.336;3.536;2023-03-24T08:07:44;11.98;;;2.70;;
60006;SDS011;45863;50.336;3.536;2023-03-24T08:10:12;12.00;;;2.05;;
60006;SDS011;45863;50.336;3.536;2023-03-24T08:12:38;8.77;;;1.85;;
60006;SDS011;45863;50.336;3.536;2023-03-24T08:15:04;10.80;;;2.35;;
60006;SDS011;45863;50.336;3.536;2023-03-24T08:17:29;12.27;;;2.60;;
60006;SDS011;45863;50.336;3.536;2023-03-24T08:19:55;8.40;;;2.28;;
60006;SDS011;45863;50.336;3.536;2023-03-24T08:22:20;10.90;;;2.55;;
60006;SDS011;45863;50.336;3.536;2023-03-24T08:24:46;9.75;;;2.50;;
60006;SDS011;45863;50.336;3.536;2023-03-24T08:27:11;9.30;;;2.00;;
60006;SDS011;45863;50.336;3.536;2023-03-24T08:29:36;12.73;;;2.97;;
60006;SDS011;45863;50.336;3.536;2023-03-24T08:32:02;11.55;;;3.22;;
60006;SDS011;45863;50.336;3.536;2023-03-24T08:34:28;11.40;;;2.58;;
60006;SDS011;45863;50.336;3.536;2023-03-24T08:36:53;11.53;;;2.63;;
60006;SDS011;45863;50.336;3.536;2023-03-24T08:39:18;8.00;;;2.30;;
60006;SDS011;45863;50.336;3.536;2023-03-24T08:41:44;12.80;;;2.45;;
60006;SDS011;45863;50.336;3.536;2023-03-24T08:44:10;14.13;;;2.78;;
60006;SDS011;45863;50.336;3.536;2023-03-24T08:46:35;11.98;;;2.75;;
60006;SDS011;45863;50.336;3.536;2023-03-24T08:49:01;22.90;;;2.55;;
60006;SDS011;45863;50.336;3.536;2023-03-24T08:51:26;9.57;;;2.30;;
60006;SDS011;45863;50.336;3.536;2023-03-24T08:53:52;11.02;;;2.60;;
60006;SDS011;45863;50.336;3.536;2023-03-24T08:56:18;12.75;;;2.75;;
60006;SDS011;45863;50.336;3.536;2023-03-24T08:58:44;13.98;;;2.95;;
60006;SDS011;45863;50.336;3.536;2023-03-24T09:01:12;13.27;;;2.50;;
60006;SDS011;45863;50.336;3.536;2023-03-24T09:03:37;16.02;;;3.28;;
60006;SDS011;45863;50.336;3.536;2023-03-24T09:06:03;10.23;;;2.38;;
60006;SDS011;45863;50.336;3.536;2023-03-24T09:08:29;7.18;;;2.15;;
60006;SDS011;45863;50.336;3.536;2023-03-24T09:10:54;10.10;;;2.30;;
60006;SDS011;45863;50.336;3.536;2023-03-24T09:13:19;10.98;;;3.13;;
60006;SDS011;45863;50.336;3.536;2023-03-24T09:15:48;10.05;;;2.85;;
60006;SDS011;45863;50.336;3.536;2023-03-24T09:18:15;8.57;;;3.25;;
60006;SDS011;45863;50.336;3.536;2023-03-24T09:20:40;13.40;;;3.22;;
60006;SDS011;45863;50.336;3.536;2023-03-24T09:23:05;16.08;;;2.80;;
60006;SDS011;45863;50.336;3.536;2023-03-24T09:25:31;16.55;;;2.90;;
60006;SDS011;45863;50.336;3.536;2023-03-24T09:27:56;10.57;;;2.47;;
60006;SDS011;45863;50.336;3.536;2023-03-24T09:30:21;9.82;;;2.05;;
60006;SDS011;45863;50.336;3.536;2023-03-24T09:32:47;13.32;;;3.10;;
60006;SDS011;45863;50.336;3.536;2023-03-24T09:35:12;13.13;;;2.63;;
60006;SDS011;45863;50.336;3.536;2023-03-24T09:37:39;11.80;;;2.15;;
60006;SDS011;45863;50.336;3.536;2023-03-24T09:40:04;11.35;;;2.40;;
60006;SDS011;45863;50.336;3.536;2023-03-24T09:42:31;8.52;;;1.90;;
60006;SDS011;45863;50.336;3.536;2023-03-24T09:44:58;10.88;;;2.25;;
60006;SDS011;45863;50.336;3.536;2023-03-24T09:47:26;11.70;;;3.17;;
60006;SDS011;45863;50.336;3.536;2023-03-24T09:49:51;11.70;;;3.28;;
60006;SDS011;45863;50.336;3.536;2023-03-24T09:52:23;9.65;;;2.75;;
60006;SDS011;45863;50.336;3.536;2023-03-24T09:54:54;10.27;;;2.95;;
60006;SDS011;45863;50.336;3.536;2023-03-24T09:57:41;11.35;;;3.10;;
60006;SDS011;45863;50.336;3.536;2023-03-24T10:00:18;16.20;;;4.15;;
60006;SDS011;45863;50.336;3.536;2023-03-24T10:02:44;9.10;;;2.78;;
60006;SDS011;45863;50.336;3.536;2023-03-24T10:05:13;11.15;;;2.53;;
60006;SDS011;45863;50.336;3.536;2023-03-24T10:07:56;8.95;;;2.08;;
60006;SDS011;45863;50.336;3.536;2023-03-24T10:10:46;13.07;;;2.53;;
60006;SDS011;45863;50.336;3.536;2023-03-24T10:13:15;8.63;;;1.73;;
60006;SDS011;45863;50.336;3.536;2023-03-24T10:31:07;17.75;;;3.17;;
60006;SDS011;45863;50.336;3.536;2023-03-24T10:33:34;10.40;;;2.28;;
60006;SDS011;45863;50.336;3.536;2023-03-24T10:38:28;10.70;;;2.17;;
60006;SDS011;45863;50.336;3.536;2023-03-24T10:40:53;11.38;;;2.17;;
60006;SDS011;45863;50.336;3.536;2023-03-24T10:43:19;18.73;;;3.97;;
60006;SDS011;45863;50.336;3.536;2023-03-24T10:45:46;10.95;;;2.38;;
60006;SDS011;45863;50.336;3.536;2023-03-24T10:48:13;13.35;;;2.60;;
60006;SDS011;45863;50.336;3.536;2023-03-24T10:50:42;10.32;;;1.45;;
60006;SDS011;45863;50.336;3.536;2023-03-24T10:53:14;13.05;;;2.55;;
60006;SDS011;45863;50.336;3.536;2023-03-24T10:55:40;13.93;;;2.80;;
60006;SDS011;45863;50.336;3.536;2023-03-24T10:58:13;8.57;;;1.83;;
60006;SDS011;45863;50.336;3.536;2023-03-24T11:00:42;14.65;;;2.30;;
60006;SDS011;45863;50.336;3.536;2023-03-24T11:03:10;12.27;;;3.17;;
60006;SDS011;45863;50.336;3.536;2023-03-24T11:05:37;9.90;;;2.33;;
60006;SDS011;45863;50.336;3.536;2023-03-24T11:08:22;13.43;;;2.67;;
60006;SDS011;45863;50.336;3.536;2023-03-24T11:10:49;13.90;;;2.85;;
60006;SDS011;45863;50.336;3.536;2023-03-24T11:13:19;5.68;;;1.80;;
60006;SDS011;45863;50.336;3.536;2023-03-24T11:18:18;15.35;;;3.78;;
60006;SDS011;45863;50.336;3.536;2023-03-24T11:20:45;13.52;;;2.92;;
60006;SDS011;45863;50.336;3.536;2023-03-24T11:23:24;7.45;;;2.00;;
60006;SDS011;45863;50.336;3.536;2023-03-24T11:28:27;7.90;;;2.20;;
60006;SDS011;45863;50.336;3.536;2023-03-24T11:30:53;7.85;;;2.70;;
60006;SDS011;45863;50.336;3.536;2023-03-24T11:35:47;20.08;;;2.55;;
60006;SDS011;45863;50.336;3.536;2023-03-24T11:38:17;12.82;;;2.75;;
60006;SDS011;45863;50.336;3.536;2023-03-24T11:40:58;8.27;;;1.67;;
60006;SDS011;45863;50.336;3.536;2023-03-24T11:43:25;12.75;;;3.13;;
60006;SDS011;45863;50.336;3.536;2023-03-24T11:46:06;12.98;;;3.03;;
60006;SDS011;45863;50.336;3.536;2023-03-24T11:48:34;12.50;;;3.35;;
60006;SDS011;45863;50.336;3.536;2023-03-24T11:51:03;7.07;;;2.40;;
60006;SDS011;45863;50.336;3.536;2023-03-24T11:53:33;9.48;;;2.25;;
60006;SDS011;45863;50.336;3.536;2023-03-24T11:56:08;12.10;;;2.90;;
60006;SDS011;45863;50.336;3.536;2023-03-24T11:58:39;12.45;;;2.88;;
60006;SDS011;45863;50.336;3.536;2023-03-24T12:03:47;6.82;;;2.47;;
60006;SDS011;45863;50.336;3.536;2023-03-24T12:13:39;7.05;;;2.10;;
60006;SDS011;45863;50.336;3.536;2023-03-24T12:23:56;16.05;;;3.80;;
60006;SDS011;45863;50.336;3.536;2023-03-24T12:26:24;7.72;;;2.42;;
60006;SDS011;45863;50.336;3.536;2023-03-24T12:28:57;10.82;;;2.28;;
60006;SDS011;45863;50.336;3.536;2023-03-24T12:38:58;8.85;;;1.67;;
60006;SDS011;45863;50.336;3.536;2023-03-24T12:46:29;7.25;;;2.25;;
60006;SDS011;45863;50.336;3.536;2023-03-24T12:48:59;10.15;;;2.15;;
60006;SDS011;45863;50.336;3.536;2023-03-24T12:51:31;8.27;;;2.33;;
60006;SDS011;45863;50.336;3.536;2023-03-24T12:56:34;7.40;;;2.47;;
60006;SDS011;45863;50.336;3.536;2023-03-24T12:59:02;12.77;;;3.10;;
60006;SDS011;45863;50.336;3.536;2023-03-24T13:01:34;14.45;;;3.55;;
60006;SDS011;45863;50.336;3.536;2023-03-24T13:06:34;11.20;;;2.60;;
60006;SDS011;45863;50.336;3.536;2023-03-24T13:09:02;9.15;;;2.97;;
60006;SDS011;45863;50.336;3.536;2023-03-24T13:11:53;12.43;;;2.60;;
60006;SDS011;45863;50.336;3.536;2023-03-24T13:14:15;11.70;;;2.83;;
60006;SDS011;45863;50.336;3.536;2023-03-24T13:16:43;15.27;;;3.20;;
60006;SDS011;45863;50.336;3.536;2023-03-24T13:19:20;15.75;;;2.40;;
60006;SDS011;45863;50.336;3.536;2023-03-24T13:21:47;14.57;;;2.70;;
60006;SDS011;45863;50.336;3.536;2023-03-24T13:24:13;11.18;;;2.60;;
60006;SDS011;45863;50.336;3.536;2023-03-24T13:26:56;8.80;;;2.30;;
60006;SDS011;45863;50.336;3.536;2023-03-24T13:37:15;9.40;;;2.10;;
60006;SDS011;45863;50.336;3.536;2023-03-24T13:39:42;6.68;;;1.60;;
60006;SDS011;45863;50.336;3.536;2023-03-24T13:42:19;5.60;;;1.80;;
60006;SDS011;45863;50.336;3.536;2023-03-24T13:44:50;5.88;;;1.65;;
60006;SDS011;45863;50.336;3.536;2023-03-24T13:47:16;6.07;;;1.63;;
60006;SDS011;45863;50.336;3.536;2023-03-24T13:49:44;9.02;;;2.00;;
60006;SDS011;45863;50.336;3.536;2023-03-24T13:52:30;6.93;;;2.50;;
60006;SDS011;45863;50.336;3.536;2023-03-24T13:54:57;9.35;;;2.45;;
60006;SDS011;45863;50.336;3.536;2023-03-24T13:57:23;8.45;;;2.17;;
60006;SDS011;45863;50.336;3.536;2023-03-24T13:59:56;8.88;;;2.08;;
60006;SDS011;45863;50.336;3.536;2023-03-24T14:12:53;10.88;;;2.50;;
60006;SDS011;45863;50.336;3.536;2023-03-24T14:15:20;7.90;;;2.03;;
60006;SDS011;45863;50.336;3.536;2023-03-24T14:17:47;8.30;;;2.60;;
60006;SDS011;45863;50.336;3.536;2023-03-24T14:20:22;8.07;;;2.17;;
60006;SDS011;45863;50.336;3.536;2023-03-24T14:22:48;6.35;;;1.40;;
60006;SDS011;45863;50.336;3.536;2023-03-24T14:27:39;5.87;;;1.30;;
60006;SDS011;45863;50.336;3.536;2023-03-24T14:32:45;7.07;;;1.80;;
60006;SDS011;45863;50.336;3.536;2023-03-24T14:40:39;5.50;;;1.33;;
60006;SDS011;45863;50.336;3.536;2023-03-24T14:43:27;6.45;;;1.77;;
60006;SDS011;45863;50.336;3.536;2023-03-24T14:48:37;5.93;;;1.15;;
60006;SDS011;45863;50.336;3.536;2023-03-24T14:53:49;6.53;;;1.80;;
60006;SDS011;45863;50.336;3.536;2023-03-24T14:56:15;6.63;;;1.70;;
60006;SDS011;45863;50.336;3.536;2023-03-24T14:58:41;5.43;;;2.40;;
60006;SDS011;45863;50.336;3.536;2023-03-24T15:01:08;5.57;;;1.50;;
60006;SDS011;45863;50.336;3.536;2023-03-24T15:03:43;6.20;;;2.10;;
60006;SDS011;45863;50.336;3.536;2023-03-24T15:06:15;7.80;;;1.70;;
60006;SDS011;45863;50.336;3.536;2023-03-24T15:08:59;4.22;;;1.50;;
60006;SDS011;45863;50.336;3.536;2023-03-24T15:11:32;4.85;;;1.73;;
60006;SDS011;45863;50.336;3.536;2023-03-24T15:13:59;7.10;;;1.92;;
60006;SDS011;45863;50.336;3.536;2023-03-24T15:19:00;8.85;;;1.88;;
60006;SDS011;45863;50.336;3.536;2023-03-24T15:23:54;6.33;;;1.60;;
60006;SDS011;45863;50.336;3.536;2023-03-24T15:26:20;8.48;;;2.20;;
60006;SDS011;45863;50.336;3.536;2023-03-24T15:31:21;7.63;;;1.55;;
60006;SDS011;45863;50.336;3.536;2023-03-24T15:33:49;6.22;;;1.98;;
60006;SDS011;45863;50.336;3.536;2023-03-24T15:36:15;5.97;;;1.75;;
60006;SDS011;45863;50.336;3.536;2023-03-24T15:38:47;7.07;;;1.42;;
60006;SDS011;45863;50.336;3.536;2023-03-24T15:43:51;7.38;;;1.52;;
60006;SDS011;45863;50.336;3.536;2023-03-24T15:46:27;6.57;;;2.55;;
60006;SDS011;45863;50.336;3.536;2023-03-24T15:48:53;4.80;;;1.67;;
60006;SDS011;45863;50.336;3.536;2023-03-24T15:51:19;8.73;;;2.05;;
60006;SDS011;45863;50.336;3.536;2023-03-24T15:53:45;7.65;;;1.70;;
60006;SDS011;45863;50.336;3.536;2023-03-24T15:56:28;6.75;;;1.55;;
60006;SDS011;45863;50.336;3.536;2023-03-24T15:58:56;6.30;;;1.83;;
60006;SDS011;45863;50.336;3.536;2023-03-24T16:01:30;8.65;;;3.33;;
60006;SDS011;45863;50.336;3.536;2023-03-24T16:04:00;8.25;;;2.25;;
60006;SDS011;45863;50.336;3.536;2023-03-24T16:06:27;6.88;;;1.98;;
60006;SDS011;45863;50.336;3.536;2023-03-24T16:08:56;7.00;;;1.90;;
60006;SDS011;45863;50.336;3.536;2023-03-24T16:11:21;5.70;;;1.83;;
60006;SDS011;45863;50.336;3.536;2023-03-24T16:13:47;9.55;;;2.00;;
60006;SDS011;45863;50.336;3.536;2023-03-24T16:18:38;9.23;;;1.83;;
60006;SDS011;45863;50.336;3.536;2023-03-24T16:23:45;4.83;;;1.50;;
60006;SDS011;45863;50.336;3.536;2023-03-24T16:26:14;6.38;;;2.72;;
60006;SDS011;45863;50.336;3.536;2023-03-24T16:28:40;6.10;;;1.50;;
60006;SDS011;45863;50.336;3.536;2023-03-24T16:31:05;5.03;;;1.35;;
60006;SDS011;45863;50.336;3.536;2023-03-24T16:33:31;5.35;;;1.23;;
60006;SDS011;45863;50.336;3.536;2023-03-24T16:35:57;4.80;;;1.10;;
60006;SDS011;45863;50.336;3.536;2023-03-24T16:38:22;3.90;;;1.13;;
60006;SDS011;45863;50.336;3.536;2023-03-24T16:40:49;3.20;;;0.70;;
60006;SDS011;45863;50.336;3.536;2023-03-24T16:43:15;2.72;;;0.82;;
60006;SDS011;45863;50.336;3.536;2023-03-24T16:45:40;2.03;;;0.70;;
60006;SDS011;45863;50.336;3.536;2023-03-24T16:48:08;5.30;;;0.98;;
60006;SDS011;45863;50.336;3.536;2023-03-24T16:52:58;4.65;;;0.80;;
60006;SDS011;45863;50.336;3.536;2023-03-24T16:55:24;3.25;;;0.95;;
60006;SDS011;45863;50.336;3.536;2023-03-24T16:57:50;1.20;;;0.60;;
60006;SDS011;45863;50.336;3.536;2023-03-24T17:00:15;2.85;;;0.90;;
60006;SDS011;45863;50.336;3.536;2023-03-24T17:02:40;3.40;;;1.00;;
60006;SDS011;45863;50.336;3.536;2023-03-24T17:05:20;3.15;;;0.93;;
60006;SDS011;45863;50.336;3.536;2023-03-24T17:07:46;3.92;;;0.88;;
60006;SDS011;45863;50.336;3.536;2023-03-24T17:10:11;3.33;;;0.93;;
60006;SDS011;45863;50.336;3.536;2023-03-24T17:12:36;4.03;;;0.93;;
60006;SDS011;45863;50.336;3.536;2023-03-24T17:15:02;4.03;;;1.05;;
60006;SDS011;45863;50.336;3.536;2023-03-24T17:17:27;3.13;;;1.10;;
60006;SDS011;45863;50.336;3.536;2023-03-24T17:19:53;3.70;;;1.17;;
60006;SDS011;45863;50.336;3.536;2023-03-24T17:22:18;4.13;;;0.90;;
60006;SDS011;45863;50.336;3.536;2023-03-24T17:24:43;2.28;;;0.90;;
60006;SDS011;45863;50.336;3.536;2023-03-24T17:27:14;6.53;;;1.10;;